createdAt,value
2022-09-18T00:01:00.845Z,10.40
2022-09-18T00:03:31.032Z,10.50
2022-09-18T00:06:05.877Z,10.50
2022-09-18T00:08:34.101Z,10.60
2022-09-18T00:11:05.190Z,10.60
2022-09-18T00:13:33.285Z,10.60
2022-09-18T00:16:01.668Z,10.50
2022-09-18T00:18:31.928Z,10.50
2022-09-18T00:21:05.562Z,10.60
2022-09-18T00:23:36.154Z,10.60
2022-09-18T00:26:04.536Z,10.60
2022-09-18T00:28:33.054Z,10.50
2022-09-18T00:31:04.723Z,10.50
2022-09-18T00:33:33.149Z,10.60
2022-09-18T00:36:03.583Z,10.60
2022-09-18T00:38:33.580Z,10.50
2022-09-18T00:41:02.218Z,10.40
2022-09-18T00:43:31.412Z,10.40
2022-09-18T00:46:03.303Z,10.50
2022-09-18T00:48:35.190Z,10.40
2022-09-18T00:51:03.349Z,10.40
2022-09-18T00:53:31.450Z,10.30
2022-09-18T00:56:02.075Z,10.40
2022-09-18T00:58:32.167Z,10.30
2022-09-18T01:01:02.401Z,10.30
2022-09-18T01:03:30.840Z,10.30
2022-09-18T01:06:05.533Z,10.20
2022-09-18T01:08:43.236Z,10.20
2022-09-18T01:11:21.845Z,10.00
2022-09-18T01:13:54.691Z,10.10
2022-09-18T01:16:25.806Z,10.10
2022-09-18T01:18:58.319Z,10.10
2022-09-18T01:21:31.510Z,10.10
2022-09-18T01:24:10.350Z,10.10
2022-09-18T01:26:53.621Z,10.00
2022-09-18T01:29:26.974Z,10.10
2022-09-18T01:31:57.580Z,10.00
2022-09-18T01:34:27.618Z,10.00
2022-09-18T01:36:58.776Z,10.00
2022-09-18T01:39:29.284Z,10.00
2022-09-18T01:42:00.343Z,10.00
2022-09-18T01:44:31.410Z,10.00
2022-09-18T01:47:01.766Z,10.00
2022-09-18T01:49:32.396Z,10.00
2022-09-18T01:52:04.139Z,10.10
2022-09-18T01:54:35.220Z,10.10
2022-09-18T01:57:05.702Z,10.20
2022-09-18T01:59:37.311Z,10.10
2022-09-18T02:02:07.569Z,10.10
2022-09-18T02:04:37.327Z,10.00
2022-09-18T02:07:09.871Z,10.00
2022-09-18T02:09:39.771Z,10.00
2022-09-18T02:12:12.052Z,10.10
2022-09-18T02:14:43.055Z,9.90
2022-09-18T02:17:14.893Z,9.90
2022-09-18T02:19:44.733Z,9.90
2022-09-18T02:22:14.926Z,9.90
2022-09-18T02:24:45.619Z,9.90
2022-09-18T02:27:14.937Z,9.90
2022-09-18T02:29:45.143Z,9.90
2022-09-18T02:32:13.238Z,10.00
2022-09-18T02:34:41.294Z,10.00
2022-09-18T02:37:24.390Z,10.00
2022-09-18T02:39:58.633Z,10.00
2022-09-18T02:42:33.738Z,9.90
2022-09-18T02:45:08.745Z,10.00
2022-09-18T02:47:42.686Z,10.00
2022-09-18T02:50:14.933Z,10.00
2022-09-18T02:52:47.024Z,9.90
2022-09-18T02:55:17.191Z,9.90
2022-09-18T02:57:48.254Z,9.90
2022-09-18T03:00:19.022Z,10.00
2022-09-18T03:02:47.846Z,10.00
2022-09-18T03:05:15.887Z,10.00
2022-09-18T03:07:43.862Z,10.00
2022-09-18T03:10:12.034Z,10.00
2022-09-18T03:12:40.160Z,10.00
2022-09-18T03:15:08.840Z,10.00
2022-09-18T03:17:38.621Z,10.00
2022-09-18T03:20:07.398Z,10.00
2022-09-18T03:22:35.532Z,10.00
2022-09-18T03:25:03.688Z,10.10
2022-09-18T03:27:34.264Z,10.10
2022-09-18T03:30:03.632Z,10.00
2022-09-18T03:32:32.619Z,10.00
2022-09-18T03:35:02.095Z,10.00
2022-09-18T03:37:30.070Z,10.00
2022-09-18T03:39:58.085Z,10.00
2022-09-18T03:42:26.205Z,10.00
2022-09-18T03:44:54.177Z,10.00
2022-09-18T03:47:22.346Z,10.00
2022-09-18T03:49:50.297Z,10.10
2022-09-18T03:52:19.831Z,10.00
2022-09-18T03:54:48.498Z,10.00
2022-09-18T03:57:16.498Z,10.00
2022-09-18T03:59:44.595Z,10.00
2022-09-18T04:02:15.675Z,10.00
2022-09-18T04:04:45.069Z,10.00
2022-09-18T04:07:13.081Z,10.00
2022-09-18T04:09:42.610Z,10.00
2022-09-18T04:12:12.643Z,10.00
2022-09-18T04:14:43.767Z,10.00
2022-09-18T04:17:11.791Z,10.00
2022-09-18T04:19:40.058Z,10.10
2022-09-18T04:22:08.049Z,10.10
2022-09-18T04:24:36.537Z,10.00
2022-09-18T04:27:06.114Z,10.00
2022-09-18T04:29:34.097Z,10.10
2022-09-18T04:32:02.296Z,10.10
2022-09-18T04:34:30.369Z,10.10
2022-09-18T04:36:58.532Z,10.10
2022-09-18T04:39:28.634Z,10.20
2022-09-18T04:41:57.238Z,10.20
2022-09-18T04:44:26.611Z,10.20
2022-09-18T04:46:54.756Z,10.30
2022-09-18T04:49:22.915Z,10.20
2022-09-18T04:51:50.903Z,10.20
2022-09-18T04:54:19.153Z,10.20
2022-09-18T04:56:47.267Z,10.20
2022-09-18T04:59:15.239Z,10.20
2022-09-18T05:01:44.827Z,10.30
2022-09-18T05:04:13.081Z,10.20
2022-09-18T05:06:41.797Z,10.20
2022-09-18T05:09:09.726Z,10.30
2022-09-18T05:11:37.910Z,10.30
2022-09-18T05:14:05.933Z,10.30
2022-09-18T05:16:34.268Z,10.30
2022-09-18T05:19:05.919Z,10.30
2022-09-18T05:21:35.188Z,10.30
2022-09-18T05:24:03.589Z,10.30
2022-09-18T05:26:31.624Z,10.30
2022-09-18T05:28:59.710Z,10.30
2022-09-18T05:31:27.949Z,10.30
2022-09-18T05:33:56.198Z,10.30
2022-09-18T05:36:26.030Z,10.30
2022-09-18T05:38:54.043Z,10.40
2022-09-18T05:41:22.154Z,10.40
2022-09-18T05:43:50.298Z,10.40
2022-09-18T05:46:18.390Z,10.40
2022-09-18T05:48:46.770Z,10.40
2022-09-18T05:51:14.829Z,10.40
2022-09-18T05:53:48.668Z,10.40
2022-09-18T05:56:17.216Z,10.40
2022-09-18T05:58:45.415Z,10.40
2022-09-18T06:01:14.603Z,10.40
2022-09-18T06:03:42.633Z,10.40
2022-09-18T06:06:10.802Z,10.40
2022-09-18T06:08:38.733Z,10.40
2022-09-18T06:11:08.310Z,10.30
2022-09-18T06:13:36.279Z,10.30
2022-09-18T06:16:04.363Z,10.40
2022-09-18T06:18:32.602Z,10.40
2022-09-18T06:21:00.558Z,10.30
2022-09-18T06:23:29.187Z,10.40
2022-09-18T06:26:00.586Z,10.40
2022-09-18T06:28:31.126Z,10.40
2022-09-18T06:30:59.545Z,10.40
2022-09-18T06:33:29.397Z,10.50
2022-09-18T06:35:57.392Z,10.50
2022-09-18T06:38:25.351Z,10.50
2022-09-18T06:40:54.688Z,10.60
2022-09-18T06:43:22.677Z,10.60
2022-09-18T06:45:56.247Z,10.70
2022-09-18T06:48:24.654Z,10.60
2022-09-18T06:50:53.300Z,10.70
2022-09-18T06:53:21.713Z,10.80
2022-09-18T06:55:49.991Z,10.80
2022-09-18T06:58:18.682Z,10.90
2022-09-18T07:00:47.274Z,10.90
2022-09-18T07:03:17.484Z,11.00
2022-09-18T07:05:46.224Z,11.00
2022-09-18T07:08:17.007Z,11.10
2022-09-18T07:10:45.151Z,11.00
2022-09-18T07:13:16.307Z,11.00
2022-09-18T07:15:47.230Z,11.20
2022-09-18T07:18:16.876Z,11.30
2022-09-18T07:20:47.250Z,11.40
2022-09-18T07:23:16.738Z,11.40
2022-09-18T07:25:44.808Z,11.40
2022-09-18T07:28:12.949Z,11.40
2022-09-18T07:30:43.478Z,11.40
2022-09-18T07:33:11.838Z,11.50
2022-09-18T07:35:41.398Z,11.40
2022-09-18T07:38:09.731Z,11.60
2022-09-18T07:40:38.085Z,11.60
2022-09-18T07:43:07.293Z,11.40
2022-09-18T07:45:35.647Z,11.50
2022-09-18T07:48:04.544Z,11.40
2022-09-18T07:50:32.953Z,11.40
2022-09-18T07:53:03.796Z,11.50
2022-09-18T07:55:34.752Z,11.50
2022-09-18T07:58:04.529Z,11.40
2022-09-18T08:00:34.868Z,11.30
2022-09-18T08:03:04.387Z,11.40
2022-09-18T08:05:32.592Z,11.40
2022-09-18T08:08:05.379Z,11.50
2022-09-18T08:10:33.616Z,11.50
2022-09-18T08:13:05.088Z,11.50
2022-09-18T08:15:33.410Z,11.50
2022-09-18T08:18:01.364Z,11.60
2022-09-18T08:20:29.784Z,11.50
2022-09-18T08:22:58.673Z,11.70
2022-09-18T08:25:28.727Z,11.70
2022-09-18T08:28:01.288Z,11.60
2022-09-18T08:30:29.670Z,11.30
2022-09-18T08:33:00.762Z,11.20
2022-09-18T08:35:29.120Z,11.20
2022-09-18T08:37:58.184Z,11.40
2022-09-18T08:40:35.249Z,11.50
2022-09-18T08:43:07.922Z,11.50
2022-09-18T08:45:41.511Z,11.30
2022-09-18T08:48:14.298Z,11.30
2022-09-18T08:50:43.801Z,11.30
2022-09-18T08:53:15.636Z,11.20
2022-09-18T08:55:47.808Z,11.30
2022-09-18T08:58:18.768Z,11.30
2022-09-18T09:00:49.101Z,11.30
2022-09-18T09:03:21.791Z,11.30
2022-09-18T09:05:52.617Z,11.20
2022-09-18T09:08:26.560Z,11.00
2022-09-18T09:11:00.378Z,11.20
2022-09-18T09:13:39.420Z,11.30
2022-09-18T09:16:14.419Z,11.40
2022-09-18T09:18:49.308Z,11.30
2022-09-18T09:21:20.879Z,11.40
2022-09-18T09:23:58.723Z,11.40
2022-09-18T09:26:32.370Z,11.40
2022-09-18T09:29:02.855Z,11.30
2022-09-18T09:31:36.018Z,11.40
2022-09-18T09:34:06.552Z,11.50
2022-09-18T09:36:35.145Z,11.40
2022-09-18T09:39:10.466Z,11.40
2022-09-18T09:41:42.363Z,11.60
2022-09-18T09:44:21.851Z,11.80
2022-09-18T09:46:55.196Z,11.80
2022-09-18T09:49:25.137Z,11.60
2022-09-18T09:51:56.815Z,11.70
2022-09-18T09:54:25.803Z,11.70
2022-09-18T09:56:59.441Z,12.00
2022-09-18T09:59:32.172Z,12.00
2022-09-18T10:02:01.185Z,12.10
2022-09-18T10:04:35.372Z,12.10
2022-09-18T10:07:06.888Z,12.20
2022-09-18T10:09:40.511Z,12.20
2022-09-18T10:12:17.434Z,12.20
2022-09-18T10:14:47.608Z,12.10
2022-09-18T10:17:17.003Z,12.10
2022-09-18T10:19:45.045Z,12.20
2022-09-18T10:22:14.615Z,12.40
2022-09-18T10:24:45.538Z,12.30
2022-09-18T10:27:15.712Z,12.20
2022-09-18T10:29:44.154Z,12.10
2022-09-18T10:32:12.975Z,12.10
2022-09-18T10:34:42.453Z,12.00
2022-09-18T10:37:17.713Z,12.20
2022-09-18T10:39:49.893Z,12.00
2022-09-18T10:42:20.231Z,12.00
2022-09-18T10:44:50.696Z,12.00
2022-09-18T10:47:22.237Z,12.10
2022-09-18T10:49:50.990Z,12.10
2022-09-18T10:52:37.093Z,12.00
2022-09-18T10:55:13.436Z,12.10
2022-09-18T10:57:46.114Z,12.10
2022-09-18T11:00:35.053Z,12.10
2022-09-18T11:03:14.798Z,12.10
2022-09-18T11:05:52.143Z,12.20
2022-09-18T11:08:22.100Z,12.20
2022-09-18T11:10:51.074Z,12.20
2022-09-18T11:13:25.526Z,12.30
2022-09-18T11:15:56.355Z,12.40
2022-09-18T11:18:25.610Z,12.50
2022-09-18T11:20:55.097Z,12.40
2022-09-18T11:23:26.331Z,12.30
2022-09-18T11:26:10.966Z,12.30
2022-09-18T11:28:40.538Z,12.50
2022-09-18T11:31:12.764Z,12.70
2022-09-18T11:33:43.508Z,12.80
2022-09-18T11:36:12.830Z,12.80
2022-09-18T11:38:41.827Z,12.50
2022-09-18T11:41:10.079Z,12.70
2022-09-18T11:43:42.400Z,12.80
2022-09-18T11:46:18.973Z,12.90
2022-09-18T11:48:48.833Z,12.80
2022-09-18T11:51:19.035Z,12.80
2022-09-18T11:53:51.419Z,12.90
2022-09-18T11:56:21.711Z,12.70
2022-09-18T11:58:50.986Z,12.60
2022-09-18T12:01:26.763Z,12.40
2022-09-18T12:03:57.474Z,12.40
2022-09-18T12:06:34.097Z,12.30
2022-09-18T12:09:03.739Z,12.50
2022-09-18T12:11:34.830Z,12.80
2022-09-18T12:14:09.333Z,12.60
2022-09-18T12:16:45.625Z,12.70
2022-09-18T12:19:17.473Z,12.60
2022-09-18T12:21:49.310Z,12.50
2022-09-18T12:24:17.752Z,12.70
2022-09-18T12:26:51.531Z,12.70
2022-09-18T12:29:25.988Z,12.70
2022-09-18T12:32:02.662Z,12.70
2022-09-18T12:34:37.159Z,12.50
2022-09-18T12:37:09.969Z,12.70
2022-09-18T12:39:50.427Z,12.70
2022-09-18T12:42:22.498Z,12.30
2022-09-18T12:45:01.976Z,12.40
2022-09-18T12:47:43.021Z,12.50
2022-09-18T12:50:21.519Z,12.50
2022-09-18T12:53:08.488Z,12.60
2022-09-18T12:55:43.605Z,12.70
2022-09-18T12:58:19.718Z,12.40
2022-09-18T13:00:50.136Z,12.50
2022-09-18T13:03:21.477Z,12.50
2022-09-18T13:05:51.522Z,12.40
2022-09-18T13:08:23.827Z,12.50
2022-09-18T13:10:54.669Z,12.40
2022-09-18T13:13:34.778Z,12.30
2022-09-18T13:16:06.977Z,12.40
2022-09-18T13:18:39.642Z,12.40
2022-09-18T13:21:10.232Z,12.50
2022-09-18T13:23:38.950Z,12.50
2022-09-18T13:26:08.827Z,12.70
2022-09-18T13:28:36.883Z,12.70
2022-09-18T13:31:15.662Z,12.60
2022-09-18T13:33:51.655Z,12.80
2022-09-18T13:36:23.531Z,12.80
2022-09-18T13:38:51.834Z,12.80
2022-09-18T13:41:22.950Z,13.00
2022-09-18T13:43:55.862Z,13.10
2022-09-18T13:46:31.870Z,12.90
2022-09-18T13:49:02.101Z,12.90
2022-09-18T13:51:32.358Z,13.00
2022-09-18T13:54:22.017Z,13.00
2022-09-18T13:57:11.042Z,13.00
2022-09-18T13:59:46.079Z,13.10
2022-09-18T14:02:31.255Z,12.90
2022-09-18T14:05:01.681Z,13.00
2022-09-18T14:07:48.094Z,13.00
2022-09-18T14:10:31.037Z,13.20
2022-09-18T14:13:28.960Z,13.20
2022-09-18T14:16:00.336Z,13.10
2022-09-18T14:18:29.486Z,13.00
2022-09-18T14:21:13.067Z,12.90
2022-09-18T14:24:11.352Z,12.80
2022-09-18T14:26:59.244Z,12.80
2022-09-18T14:29:28.510Z,12.80
2022-09-18T14:32:05.622Z,12.70
2022-09-18T14:34:37.262Z,12.80
2022-09-18T14:37:21.641Z,12.80
2022-09-18T14:39:49.641Z,12.80
2022-09-18T14:42:22.605Z,12.70
2022-09-18T14:44:52.581Z,12.70
2022-09-18T14:47:21.669Z,12.60
2022-09-18T14:49:49.952Z,12.50
2022-09-18T14:52:22.436Z,12.60
2022-09-18T14:54:51.031Z,12.50
2022-09-18T14:57:20.769Z,12.50
2022-09-18T14:59:49.186Z,12.50
2022-09-18T15:02:21.143Z,12.50
2022-09-18T15:04:51.789Z,12.50
2022-09-18T15:07:25.066Z,12.30
2022-09-18T15:09:57.596Z,12.40
2022-09-18T15:12:26.202Z,12.40
2022-09-18T15:14:54.732Z,12.40
2022-09-18T15:17:23.475Z,12.40
2022-09-18T15:19:58.884Z,12.40
2022-09-18T15:22:29.083Z,12.40
2022-09-18T15:25:02.140Z,12.50
2022-09-18T15:27:31.259Z,12.40
2022-09-18T15:30:00.778Z,12.50
2022-09-18T15:32:35.343Z,12.40
2022-09-18T15:35:06.609Z,12.40
2022-09-18T15:37:38.419Z,12.40
2022-09-18T15:40:07.900Z,12.30
2022-09-18T15:42:36.736Z,12.40
2022-09-18T15:45:25.431Z,12.40
2022-09-18T15:47:54.164Z,12.40
2022-09-18T15:50:33.957Z,12.40
2022-09-18T15:53:06.064Z,12.40
2022-09-18T15:55:35.197Z,12.40
2022-09-18T15:58:03.924Z,12.40
2022-09-18T16:00:32.765Z,12.40
2022-09-18T16:03:02.285Z,12.30
2022-09-18T16:05:31.447Z,12.30
2022-09-18T16:08:00.963Z,12.30
2022-09-18T16:10:51.230Z,12.20
2022-09-18T16:13:31.507Z,12.20
2022-09-18T16:16:16.488Z,12.20
2022-09-18T16:18:52.817Z,12.30
2022-09-18T16:21:20.907Z,12.20
2022-09-18T16:23:50.824Z,12.20
2022-09-18T16:26:28.482Z,12.10
2022-09-18T16:28:58.655Z,12.20
2022-09-18T16:31:30.547Z,12.20
2022-09-18T16:34:01.468Z,12.10
2022-09-18T16:36:34.552Z,12.10
2022-09-18T16:39:03.266Z,12.00
2022-09-18T16:41:33.728Z,12.10
2022-09-18T16:44:02.517Z,12.10
2022-09-18T16:46:33.785Z,12.10
2022-09-18T16:49:02.213Z,12.10
2022-09-18T16:51:30.272Z,12.10
2022-09-18T16:53:58.857Z,12.10
2022-09-18T16:56:29.913Z,12.10
2022-09-18T16:59:00.713Z,12.10
2022-09-18T17:01:36.270Z,12.10
2022-09-18T17:04:16.634Z,12.10
2022-09-18T17:06:45.502Z,12.10
2022-09-18T17:09:13.839Z,12.10
2022-09-18T17:11:41.948Z,12.10
2022-09-18T17:14:12.617Z,12.10
2022-09-18T17:16:44.893Z,12.10
2022-09-18T17:19:14.898Z,12.10
2022-09-18T17:21:47.141Z,11.90
2022-09-18T17:24:24.881Z,11.80
2022-09-18T17:26:55.368Z,11.80
2022-09-18T17:29:25.810Z,11.80
2022-09-18T17:31:55.715Z,11.80
2022-09-18T17:34:26.184Z,11.70
2022-09-18T17:36:56.707Z,11.80
2022-09-18T17:39:28.610Z,11.80
2022-09-18T17:42:01.487Z,11.80
2022-09-18T17:44:36.321Z,11.80
2022-09-18T17:47:07.489Z,11.80
2022-09-18T17:49:38.575Z,11.70
2022-09-18T17:52:09.737Z,11.70
2022-09-18T17:54:40.582Z,11.70
2022-09-18T17:57:14.399Z,11.80
2022-09-18T17:59:49.387Z,11.70
2022-09-18T18:02:20.707Z,11.60
2022-09-18T18:04:52.486Z,11.60
2022-09-18T18:07:23.518Z,11.60
2022-09-18T18:09:55.522Z,11.70
2022-09-18T18:12:26.939Z,11.60
2022-09-18T18:15:01.269Z,11.60
2022-09-18T18:17:37.655Z,11.60
2022-09-18T18:20:11.998Z,11.70
2022-09-18T18:22:44.722Z,11.70
2022-09-18T18:25:17.092Z,11.60
2022-09-18T18:27:49.686Z,11.60
2022-09-18T18:30:23.388Z,11.70
2022-09-18T18:32:59.859Z,11.60
2022-09-18T18:35:32.384Z,11.60
2022-09-18T18:38:07.141Z,11.60
2022-09-18T18:40:42.993Z,11.60
2022-09-18T18:43:19.233Z,11.60
2022-09-18T18:46:10.673Z,11.60
2022-09-18T18:48:47.105Z,11.60
2022-09-18T18:51:22.141Z,11.60
2022-09-18T18:53:59.268Z,11.60
2022-09-18T18:56:32.743Z,11.50
2022-09-18T18:59:08.518Z,11.50
2022-09-18T19:01:45.817Z,11.50
2022-09-18T19:04:21.326Z,11.50
2022-09-18T19:06:55.012Z,11.50
2022-09-18T19:09:31.145Z,11.50
2022-09-18T19:12:07.274Z,11.50
2022-09-18T19:14:41.681Z,11.50
2022-09-18T19:17:20.698Z,11.50
2022-09-18T19:19:58.067Z,11.40
2022-09-18T19:22:31.326Z,11.50
2022-09-18T19:25:06.648Z,11.50
2022-09-18T19:27:46.876Z,11.50
2022-09-18T19:30:19.743Z,11.50
2022-09-18T19:32:57.192Z,11.50
2022-09-18T19:35:29.576Z,11.50
2022-09-18T19:38:01.435Z,11.50
2022-09-18T19:40:34.644Z,11.50
2022-09-18T19:43:09.982Z,11.60
2022-09-18T19:45:44.676Z,11.60
2022-09-18T19:48:24.320Z,11.50
2022-09-18T19:50:58.395Z,11.60
2022-09-18T19:53:31.763Z,11.60
2022-09-18T19:56:01.524Z,11.70
2022-09-18T19:58:35.472Z,11.60
2022-09-18T20:01:12.399Z,11.60
2022-09-18T20:03:46.393Z,11.70
2022-09-18T20:06:17.176Z,11.70
2022-09-18T20:08:46.579Z,11.70
2022-09-18T20:11:15.517Z,11.80
2022-09-18T20:13:44.001Z,11.70
2022-09-18T20:16:18.520Z,11.70
2022-09-18T20:18:51.648Z,11.90
2022-09-18T20:21:22.950Z,11.80
2022-09-18T20:23:50.939Z,11.80
2022-09-18T20:26:20.506Z,11.80
2022-09-18T20:28:51.540Z,11.80
2022-09-18T20:31:20.823Z,11.70
2022-09-18T20:33:55.142Z,11.70
2022-09-18T20:36:23.400Z,11.70
2022-09-18T20:38:52.396Z,11.60
2022-09-18T20:41:21.338Z,11.60
2022-09-18T20:43:53.551Z,11.70
2022-09-18T20:46:25.210Z,11.70
2022-09-18T20:48:55.356Z,11.50
2022-09-18T20:51:27.010Z,11.30
2022-09-18T20:53:56.310Z,11.20
2022-09-18T20:56:25.187Z,11.10
2022-09-18T20:58:56.826Z,11.20
2022-09-18T21:01:25.669Z,11.30
2022-09-18T21:04:00.601Z,11.30
2022-09-18T21:06:31.801Z,11.40
2022-09-18T21:09:00.440Z,11.40
2022-09-18T21:11:29.365Z,11.40
2022-09-18T21:13:57.938Z,11.50
2022-09-18T21:16:27.237Z,11.50
2022-09-18T21:18:57.962Z,11.50
2022-09-18T21:21:26.684Z,11.50
2022-09-18T21:23:56.611Z,11.40
2022-09-18T21:26:26.311Z,11.40
2022-09-18T21:28:55.176Z,11.40
2022-09-18T21:31:24.770Z,11.40
2022-09-18T21:33:53.419Z,11.40
2022-09-18T21:36:26.066Z,11.50
2022-09-18T21:38:54.648Z,11.50
2022-09-18T21:41:24.790Z,11.50
2022-09-18T21:43:54.166Z,11.40
2022-09-18T21:46:24.015Z,11.40
2022-09-18T21:48:54.802Z,11.40
2022-09-18T21:51:24.480Z,11.40
2022-09-18T21:53:52.415Z,11.50
2022-09-18T21:56:21.472Z,11.50
2022-09-18T21:58:50.427Z,11.40
2022-09-18T22:01:19.254Z,11.40
2022-09-18T22:03:50.887Z,11.40
2022-09-18T22:06:19.540Z,11.30
2022-09-18T22:08:51.136Z,11.30
2022-09-18T22:11:20.432Z,11.30
2022-09-18T22:13:48.666Z,11.20
2022-09-18T22:16:16.948Z,11.20
2022-09-18T22:18:47.765Z,11.30
2022-09-18T22:21:18.026Z,11.30
2022-09-18T22:23:47.002Z,11.30
2022-09-18T22:26:16.446Z,11.20
2022-09-18T22:28:47.671Z,11.20
2022-09-18T22:31:15.815Z,11.20
2022-09-18T22:33:43.745Z,11.20
2022-09-18T22:36:13.640Z,11.20
2022-09-18T22:38:41.986Z,11.10
2022-09-18T22:41:10.922Z,11.20
2022-09-18T22:43:40.254Z,11.20
2022-09-18T22:46:09.041Z,11.20
2022-09-18T22:48:37.627Z,11.10
2022-09-18T22:51:07.109Z,11.20
2022-09-18T22:53:35.576Z,11.30
2022-09-18T22:56:04.522Z,11.40
2022-09-18T22:58:32.721Z,11.50
2022-09-18T23:01:08.193Z,11.60
2022-09-18T23:03:38.517Z,11.70
2022-09-18T23:06:07.736Z,11.70
2022-09-18T23:08:35.913Z,11.80
2022-09-18T23:11:04.434Z,11.70
2022-09-18T23:13:33.085Z,11.80
2022-09-18T23:16:05.671Z,11.80
2022-09-18T23:18:35.093Z,11.70
2022-09-18T23:21:04.200Z,11.80
2022-09-18T23:23:33.506Z,11.80
2022-09-18T23:26:05.390Z,11.80
2022-09-18T23:28:35.051Z,11.80
2022-09-18T23:31:03.826Z,11.80
2022-09-18T23:33:32.405Z,11.80
2022-09-18T23:36:11.866Z,11.80
2022-09-18T23:38:39.915Z,11.90
2022-09-18T23:41:09.400Z,11.90
2022-09-18T23:43:37.866Z,11.80
2022-09-18T23:46:09.161Z,11.80
2022-09-18T23:48:37.129Z,11.90
2022-09-18T23:51:05.591Z,11.90
2022-09-18T23:53:38.192Z,11.90
2022-09-18T23:56:07.314Z,11.90
2022-09-18T23:58:35.364Z,11.90
